KFAR/FAR METAR and TAF weather

Enter ICAO airport designator
Station Type Date Time Source
KFAR METAR 2019/02/21 15:53 UTC NOAA

KFAR 211553Z 25007KT 5SM BR OVC010 M12/M14 A3011 RMK AO2 SLP217 T11221139


Station Type Date Time Source
KFAR Decoded METAR 2019/02/21 15:53 UTC NOAA

HECTOR INTERNATIONAL AIRPORT , ND, United States (KFAR) 46-56N 096-49W 277M
Feb 21, 2019 - 10:53 AM EST / 2019.02.21 1553 UTC
Wind: from the WSW (250 degrees) at 8 MPH (7 KT):0
Visibility: 5 mile(s):0
Sky conditions: overcast
Weather: mist
Temperature: 10.0 F (-12.2 C)
Windchill: -2 F (-19 C):1
Dew Point: 7.0 F (-13.9 C)
Relative Humidity: 87%
Pressure (altimeter): 30.11 in. Hg (1019 hPa)
ob: KFAR 211553Z 25007KT 5SM BR OVC010 M12/M14 A3011 RMK AO2 SLP217 T11221139
cycle: 16

Station Type Date Time Source
KFAR TAF 2019/02/21 12:45 UTC NOAA

TAF KFAR 211142Z 2112/2212 34009KT P6SM OVC110
TEMPO 2112/2115 5SM -SN OVC050
FM211500 VRB04KT P6SM BKN020
FM221100 VRB03KT P6SM BKN035


Example: see airport list